sensor_id;sensor_type;location;lat;lon;timestamp;pressure;altitude;pressure_sealevel;temperature;humidity
78857;BME280;68207;50.078;19.936;2023-03-21T00:01:42;98966.33;;;9.97;74.13
78857;BME280;68207;50.078;19.936;2023-03-21T00:04:08;98964.06;;;9.99;74.03
78857;BME280;68207;50.078;19.936;2023-03-21T00:06:33;98960.59;;;10.00;73.97
78857;BME280;68207;50.078;19.936;2023-03-21T00:08:58;98958.38;;;10.01;74.26
78857;BME280;68207;50.078;19.936;2023-03-21T00:11:23;98961.73;;;10.04;74.23
78857;BME280;68207;50.078;19.936;2023-03-21T00:13:49;98958.73;;;10.05;74.12
78857;BME280;68207;50.078;19.936;2023-03-21T00:16:17;98957.17;;;10.05;74.16
78857;BME280;68207;50.078;19.936;2023-03-21T00:18:44;98956.52;;;10.00;74.47
78857;BME280;68207;50.078;19.936;2023-03-21T00:21:14;98953.84;;;9.97;74.55
78857;BME280;68207;50.078;19.936;2023-03-21T00:23:40;98957.58;;;9.98;74.48
78857;BME280;68207;50.078;19.936;2023-03-21T00:26:06;98958.38;;;9.97;74.57
78857;BME280;68207;50.078;19.936;2023-03-21T00:28:35;98955.07;;;9.95;74.73
78857;BME280;68207;50.078;19.936;2023-03-21T00:31:00;98955.61;;;9.92;74.98
78857;BME280;68207;50.078;19.936;2023-03-21T00:33:26;98954.25;;;9.90;74.97
78857;BME280;68207;50.078;19.936;2023-03-21T00:35:51;98952.60;;;9.88;74.99
78857;BME280;68207;50.078;19.936;2023-03-21T00:38:18;98952.67;;;9.87;75.11
78857;BME280;68207;50.078;19.936;2023-03-21T00:40:43;98947.12;;;9.85;75.34
78857;BME280;68207;50.078;19.936;2023-03-21T00:43:09;98947.05;;;9.82;75.26
78857;BME280;68207;50.078;19.936;2023-03-21T00:45:36;98941.82;;;9.80;75.52
78857;BME280;68207;50.078;19.936;2023-03-21T00:48:01;98938.39;;;9.77;75.55
78857;BME280;68207;50.078;19.936;2023-03-21T00:50:26;98933.25;;;9.76;75.48
78857;BME280;68207;50.078;19.936;2023-03-21T00:52:52;98935.45;;;9.74;75.91
78857;BME280;68207;50.078;19.936;2023-03-21T00:55:18;98932.60;;;9.72;75.68
78857;BME280;68207;50.078;19.936;2023-03-21T00:57:43;98930.34;;;9.75;75.70
78857;BME280;68207;50.078;19.936;2023-03-21T01:00:11;98926.60;;;9.77;75.79
78857;BME280;68207;50.078;19.936;2023-03-21T01:02:37;98931.40;;;9.76;75.79
78857;BME280;68207;50.078;19.936;2023-03-21T01:05:08;98929.78;;;9.75;75.82
78857;BME280;68207;50.078;19.936;2023-03-21T01:07:33;98933.55;;;9.75;75.86
78857;BME280;68207;50.078;19.936;2023-03-21T01:09:59;98934.67;;;9.76;76.04
78857;BME280;68207;50.078;19.936;2023-03-21T01:12:25;98936.70;;;9.77;76.00
78857;BME280;68207;50.078;19.936;2023-03-21T01:14:51;98936.39;;;9.76;76.44
78857;BME280;68207;50.078;19.936;2023-03-21T01:17:16;98935.67;;;9.73;76.33
78857;BME280;68207;50.078;19.936;2023-03-21T01:19:41;98938.73;;;9.71;76.27
78857;BME280;68207;50.078;19.936;2023-03-21T01:22:07;98936.77;;;9.66;76.47
78857;BME280;68207;50.078;19.936;2023-03-21T01:24:33;98934.19;;;9.65;76.36
78857;BME280;68207;50.078;19.936;2023-03-21T01:26:58;98939.74;;;9.65;76.87
78857;BME280;68207;50.078;19.936;2023-03-21T01:29:23;98938.63;;;9.60;77.20
78857;BME280;68207;50.078;19.936;2023-03-21T01:31:48;98938.41;;;9.54;77.25
78857;BME280;68207;50.078;19.936;2023-03-21T01:34:14;98935.62;;;9.51;77.25
78857;BME280;68207;50.078;19.936;2023-03-21T01:36:39;98935.50;;;9.51;77.40
78857;BME280;68207;50.078;19.936;2023-03-21T01:39:05;98939.20;;;9.52;77.36
78857;BME280;68207;50.078;19.936;2023-03-21T01:41:40;98936.92;;;9.54;77.32
78857;BME280;68207;50.078;19.936;2023-03-21T01:44:11;98937.51;;;9.56;77.30
78857;BME280;68207;50.078;19.936;2023-03-21T01:49:19;98934.63;;;9.62;77.07
78857;BME280;68207;50.078;19.936;2023-03-21T01:52:10;98937.34;;;9.63;77.06
78857;BME280;68207;50.078;19.936;2023-03-21T01:54:37;98936.31;;;9.65;76.98
78857;BME280;68207;50.078;19.936;2023-03-21T01:57:09;98935.71;;;9.71;76.98
78857;BME280;68207;50.078;19.936;2023-03-21T01:59:40;98935.67;;;9.73;77.10
78857;BME280;68207;50.078;19.936;2023-03-21T02:02:10;98934.20;;;9.75;76.79
78857;BME280;68207;50.078;19.936;2023-03-21T02:04:37;98934.91;;;9.77;76.78
78857;BME280;68207;50.078;19.936;2023-03-21T02:07:13;98932.14;;;9.76;76.72
78857;BME280;68207;50.078;19.936;2023-03-21T02:09:44;98934.13;;;9.80;76.78
78857;BME280;68207;50.078;19.936;2023-03-21T02:12:10;98934.28;;;9.79;77.04
78857;BME280;68207;50.078;19.936;2023-03-21T02:14:37;98932.53;;;9.79;76.66
78857;BME280;68207;50.078;19.936;2023-03-21T02:17:18;98929.11;;;9.80;76.71
78857;BME280;68207;50.078;19.936;2023-03-21T02:28:13;98927.80;;;9.82;76.93
78857;BME280;68207;50.078;19.936;2023-03-21T02:30:57;98931.80;;;9.79;76.74
78857;BME280;68207;50.078;19.936;2023-03-21T02:36:16;98932.36;;;9.78;76.82
78857;BME280;68207;50.078;19.936;2023-03-21T02:41:54;98930.70;;;9.78;77.04
78857;BME280;68207;50.078;19.936;2023-03-21T02:47:02;98926.61;;;9.83;77.14
78857;BME280;68207;50.078;19.936;2023-03-21T02:49:43;98927.30;;;9.83;76.96
78857;BME280;68207;50.078;19.936;2023-03-21T02:52:15;98927.68;;;9.85;77.22
78857;BME280;68207;50.078;19.936;2023-03-21T02:54:43;98928.09;;;9.84;77.17
78857;BME280;68207;50.078;19.936;2023-03-21T02:57:10;98928.02;;;9.85;77.16
78857;BME280;68207;50.078;19.936;2023-03-21T02:59:37;98933.30;;;9.86;77.24
78857;BME280;68207;50.078;19.936;2023-03-21T03:02:03;98933.67;;;9.86;77.38
78857;BME280;68207;50.078;19.936;2023-03-21T03:04:29;98934.86;;;9.84;77.41
78857;BME280;68207;50.078;19.936;2023-03-21T03:09:53;98932.12;;;9.81;77.66
78857;BME280;68207;50.078;19.936;2023-03-21T03:12:42;98932.19;;;9.81;77.77
78857;BME280;68207;50.078;19.936;2023-03-21T03:18:10;98933.90;;;9.84;77.97
78857;BME280;68207;50.078;19.936;2023-03-21T03:21:04;98933.24;;;9.84;78.03
78857;BME280;68207;50.078;19.936;2023-03-21T03:24:00;98935.52;;;9.81;78.05
78857;BME280;68207;50.078;19.936;2023-03-21T03:26:35;98930.11;;;9.77;78.26
78857;BME280;68207;50.078;19.936;2023-03-21T03:29:06;98936.34;;;9.75;78.38
78857;BME280;68207;50.078;19.936;2023-03-21T03:31:36;98935.61;;;9.70;78.75
78857;BME280;68207;50.078;19.936;2023-03-21T03:34:09;98933.11;;;9.64;78.83
78857;BME280;68207;50.078;19.936;2023-03-21T03:36:39;98931.82;;;9.58;78.95
78857;BME280;68207;50.078;19.936;2023-03-21T03:39:11;98933.14;;;9.57;79.15
78857;BME280;68207;50.078;19.936;2023-03-21T03:41:58;98928.73;;;9.56;79.20
78857;BME280;68207;50.078;19.936;2023-03-21T03:44:25;98930.86;;;9.51;79.41
78857;BME280;68207;50.078;19.936;2023-03-21T03:46:57;98932.35;;;9.47;79.76
78857;BME280;68207;50.078;19.936;2023-03-21T03:49:30;98933.54;;;9.44;79.79
78857;BME280;68207;50.078;19.936;2023-03-21T03:52:15;98933.11;;;9.47;79.75
78857;BME280;68207;50.078;19.936;2023-03-21T03:54:44;98936.92;;;9.50;79.58
78857;BME280;68207;50.078;19.936;2023-03-21T03:57:10;98936.16;;;9.54;79.72
78857;BME280;68207;50.078;19.936;2023-03-21T03:59:39;98938.64;;;9.59;79.66
78857;BME280;68207;50.078;19.936;2023-03-21T04:02:05;98935.95;;;9.62;79.62
78857;BME280;68207;50.078;19.936;2023-03-21T04:04:31;98936.11;;;9.67;79.50
78857;BME280;68207;50.078;19.936;2023-03-21T04:06:56;98935.05;;;9.72;79.25
78857;BME280;68207;50.078;19.936;2023-03-21T04:09:22;98933.43;;;9.73;79.20
78857;BME280;68207;50.078;19.936;2023-03-21T04:11:48;98935.21;;;9.71;79.33
78857;BME280;68207;50.078;19.936;2023-03-21T04:14:13;98929.80;;;9.68;79.31
78857;BME280;68207;50.078;19.936;2023-03-21T04:16:39;98928.51;;;9.64;79.24
78857;BME280;68207;50.078;19.936;2023-03-21T04:19:04;98928.30;;;9.64;79.43
78857;BME280;68207;50.078;19.936;2023-03-21T04:21:30;98933.34;;;9.63;79.39
78857;BME280;68207;50.078;19.936;2023-03-21T04:23:56;98929.84;;;9.65;79.31
78857;BME280;68207;50.078;19.936;2023-03-21T04:26:21;98929.09;;;9.67;79.38
78857;BME280;68207;50.078;19.936;2023-03-21T04:28:48;98929.83;;;9.65;79.24
78857;BME280;68207;50.078;19.936;2023-03-21T04:31:14;98931.41;;;9.64;79.31
78857;BME280;68207;50.078;19.936;2023-03-21T04:33:41;98931.65;;;9.60;79.38
78857;BME280;68207;50.078;19.936;2023-03-21T04:36:07;98929.98;;;9.59;79.38
78857;BME280;68207;50.078;19.936;2023-03-21T04:38:34;98930.79;;;9.61;79.57
78857;BME280;68207;50.078;19.936;2023-03-21T04:41:00;98931.92;;;9.64;79.45
78857;BME280;68207;50.078;19.936;2023-03-21T04:43:26;98932.65;;;9.65;79.48
78857;BME280;68207;50.078;19.936;2023-03-21T04:45:52;98934.46;;;9.63;79.44
78857;BME280;68207;50.078;19.936;2023-03-21T04:48:18;98936.58;;;9.65;79.48
78857;BME280;68207;50.078;19.936;2023-03-21T04:50:45;98937.59;;;9.70;79.40
78857;BME280;68207;50.078;19.936;2023-03-21T04:53:11;98933.92;;;9.71;79.32
78857;BME280;68207;50.078;19.936;2023-03-21T04:55:36;98936.54;;;9.67;79.28
78857;BME280;68207;50.078;19.936;2023-03-21T04:58:03;98936.45;;;9.63;79.38
78857;BME280;68207;50.078;19.936;2023-03-21T05:00:28;98936.05;;;9.58;79.38
78857;BME280;68207;50.078;19.936;2023-03-21T05:02:53;98936.35;;;9.52;79.38
78857;BME280;68207;50.078;19.936;2023-03-21T05:05:19;98939.77;;;9.50;79.34
78857;BME280;68207;50.078;19.936;2023-03-21T05:07:44;98936.21;;;9.49;79.57
78857;BME280;68207;50.078;19.936;2023-03-21T05:10:10;98945.81;;;9.45;79.51
78857;BME280;68207;50.078;19.936;2023-03-21T05:12:36;98946.83;;;9.42;79.65
78857;BME280;68207;50.078;19.936;2023-03-21T05:15:02;98945.91;;;9.39;79.66
78857;BME280;68207;50.078;19.936;2023-03-21T05:17:28;98945.64;;;9.35;79.82
78857;BME280;68207;50.078;19.936;2023-03-21T05:19:54;98943.82;;;9.33;79.74
78857;BME280;68207;50.078;19.936;2023-03-21T05:22:21;98945.30;;;9.30;80.18
78857;BME280;68207;50.078;19.936;2023-03-21T05:24:48;98946.95;;;9.23;80.15
78857;BME280;68207;50.078;19.936;2023-03-21T05:27:18;98946.59;;;9.18;80.28
78857;BME280;68207;50.078;19.936;2023-03-21T05:30:07;98949.20;;;9.17;80.27
78857;BME280;68207;50.078;19.936;2023-03-21T05:32:33;98947.35;;;9.17;80.45
78857;BME280;68207;50.078;19.936;2023-03-21T05:34:59;98948.61;;;9.17;80.28
78857;BME280;68207;50.078;19.936;2023-03-21T05:37:25;98952.43;;;9.16;80.49
78857;BME280;68207;50.078;19.936;2023-03-21T05:39:50;98961.02;;;9.15;80.57
78857;BME280;68207;50.078;19.936;2023-03-21T05:42:16;98964.58;;;9.13;80.53
78857;BME280;68207;50.078;19.936;2023-03-21T05:44:42;98965.16;;;9.16;80.56
78857;BME280;68207;50.078;19.936;2023-03-21T05:47:07;98965.01;;;9.20;80.54
78857;BME280;68207;50.078;19.936;2023-03-21T05:49:33;98966.36;;;9.22;80.65
78857;BME280;68207;50.078;19.936;2023-03-21T05:51:58;98967.50;;;9.17;80.90
78857;BME280;68207;50.078;19.936;2023-03-21T05:54:23;98968.98;;;9.13;80.70
78857;BME280;68207;50.078;19.936;2023-03-21T05:56:49;98972.41;;;9.14;80.86
78857;BME280;68207;50.078;19.936;2023-03-21T05:59:14;98973.16;;;9.12;80.77
78857;BME280;68207;50.078;19.936;2023-03-21T06:01:40;98975.92;;;9.11;80.86
78857;BME280;68207;50.078;19.936;2023-03-21T06:04:06;98976.77;;;9.09;80.76
78857;BME280;68207;50.078;19.936;2023-03-21T06:06:31;98976.38;;;9.03;81.09
78857;BME280;68207;50.078;19.936;2023-03-21T06:08:56;98980.55;;;9.01;80.95
78857;BME280;68207;50.078;19.936;2023-03-21T06:11:25;98983.70;;;9.01;81.01
78857;BME280;68207;50.078;19.936;2023-03-21T06:13:50;98980.56;;;9.01;80.92
78857;BME280;68207;50.078;19.936;2023-03-21T06:16:15;98979.10;;;9.01;80.92
78857;BME280;68207;50.078;19.936;2023-03-21T06:18:41;98976.45;;;8.98;80.84
78857;BME280;68207;50.078;19.936;2023-03-21T06:21:06;98980.54;;;8.96;80.93
78857;BME280;68207;50.078;19.936;2023-03-21T06:23:32;98979.38;;;8.95;80.90
78857;BME280;68207;50.078;19.936;2023-03-21T06:25:57;98976.68;;;8.97;80.68
78857;BME280;68207;50.078;19.936;2023-03-21T06:28:22;98981.66;;;9.02;80.65
78857;BME280;68207;50.078;19.936;2023-03-21T06:30:47;98982.29;;;9.02;80.57
78857;BME280;68207;50.078;19.936;2023-03-21T06:33:13;98984.19;;;9.01;80.43
78857;BME280;68207;50.078;19.936;2023-03-21T06:35:38;98981.67;;;9.01;80.24
78857;BME280;68207;50.078;19.936;2023-03-21T06:38:03;98979.60;;;9.01;80.05
78857;BME280;68207;50.078;19.936;2023-03-21T06:40:29;98979.70;;;9.00;80.20
78857;BME280;68207;50.078;19.936;2023-03-21T06:42:54;98981.65;;;8.98;80.17
78857;BME280;68207;50.078;19.936;2023-03-21T06:45:20;98983.54;;;8.99;80.24
78857;BME280;68207;50.078;19.936;2023-03-21T06:47:45;98985.35;;;9.00;80.19
78857;BME280;68207;50.078;19.936;2023-03-21T06:50:10;98985.84;;;9.00;80.12
78857;BME280;68207;50.078;19.936;2023-03-21T06:52:36;98986.25;;;9.03;80.08
78857;BME280;68207;50.078;19.936;2023-03-21T06:55:01;98987.32;;;9.07;79.96
78857;BME280;68207;50.078;19.936;2023-03-21T06:57:26;98989.95;;;9.10;79.75
78857;BME280;68207;50.078;19.936;2023-03-21T06:59:52;98987.29;;;9.10;79.72
78857;BME280;68207;50.078;19.936;2023-03-21T07:02:17;98989.72;;;9.12;79.78
78857;BME280;68207;50.078;19.936;2023-03-21T07:04:42;98987.16;;;9.14;79.85
78857;BME280;68207;50.078;19.936;2023-03-21T07:07:08;98984.83;;;9.16;79.96
78857;BME280;68207;50.078;19.936;2023-03-21T07:09:33;98986.09;;;9.19;79.87
78857;BME280;68207;50.078;19.936;2023-03-21T07:11:58;98984.55;;;9.24;79.75
78857;BME280;68207;50.078;19.936;2023-03-21T07:14:23;98986.48;;;9.34;79.68
78857;BME280;68207;50.078;19.936;2023-03-21T07:16:49;98989.30;;;9.49;79.51
78857;BME280;68207;50.078;19.936;2023-03-21T07:19:15;98989.10;;;9.54;78.69
78857;BME280;68207;50.078;19.936;2023-03-21T07:21:41;98986.30;;;9.60;78.76
78857;BME280;68207;50.078;19.936;2023-03-21T07:24:06;98985.98;;;9.76;78.67
78857;BME280;68207;50.078;19.936;2023-03-21T07:26:32;98984.79;;;9.95;78.65
78857;BME280;68207;50.078;19.936;2023-03-21T07:28:57;98986.38;;;10.12;77.73
78857;BME280;68207;50.078;19.936;2023-03-21T07:31:22;98987.94;;;10.17;77.34
78857;BME280;68207;50.078;19.936;2023-03-21T07:33:51;98982.47;;;10.20;77.17
78857;BME280;68207;50.078;19.936;2023-03-21T07:36:16;98984.51;;;10.23;77.03
78857;BME280;68207;50.078;19.936;2023-03-21T07:38:43;98983.98;;;10.36;77.19
78857;BME280;68207;50.078;19.936;2023-03-21T07:41:09;98978.96;;;10.51;76.83
78857;BME280;68207;50.078;19.936;2023-03-21T07:43:35;98982.62;;;10.64;76.56
78857;BME280;68207;50.078;19.936;2023-03-21T07:46:00;98985.44;;;10.67;75.92
78857;BME280;68207;50.078;19.936;2023-03-21T07:48:26;98985.52;;;10.69;75.74
78857;BME280;68207;50.078;19.936;2023-03-21T07:50:52;98990.98;;;10.72;74.85
78857;BME280;68207;50.078;19.936;2023-03-21T07:53:17;98989.11;;;10.67;74.30
78857;BME280;68207;50.078;19.936;2023-03-21T07:55:43;98990.61;;;10.66;74.34
78857;BME280;68207;50.078;19.936;2023-03-21T07:58:08;98992.38;;;10.70;74.65
78857;BME280;68207;50.078;19.936;2023-03-21T08:00:33;98994.37;;;10.77;74.42
78857;BME280;68207;50.078;19.936;2023-03-21T08:02:59;98996.31;;;10.82;73.94
78857;BME280;68207;50.078;19.936;2023-03-21T08:05:29;98992.54;;;10.77;73.51
78857;BME280;68207;50.078;19.936;2023-03-21T08:07:57;98993.52;;;10.74;73.90
78857;BME280;68207;50.078;19.936;2023-03-21T08:10:23;98991.96;;;10.73;73.81
78857;BME280;68207;50.078;19.936;2023-03-21T08:12:48;98990.89;;;10.77;73.80
78857;BME280;68207;50.078;19.936;2023-03-21T08:15:14;98995.23;;;10.83;73.81
78857;BME280;68207;50.078;19.936;2023-03-21T08:17:40;98996.19;;;10.92;74.18
78857;BME280;68207;50.078;19.936;2023-03-21T08:20:12;98998.31;;;10.98;73.71
78857;BME280;68207;50.078;19.936;2023-03-21T08:22:38;98997.11;;;11.01;73.64
78857;BME280;68207;50.078;19.936;2023-03-21T08:25:04;99000.52;;;11.07;73.56
78857;BME280;68207;50.078;19.936;2023-03-21T08:27:31;99002.71;;;11.11;73.45
78857;BME280;68207;50.078;19.936;2023-03-21T08:29:57;99002.89;;;11.17;73.36
78857;BME280;68207;50.078;19.936;2023-03-21T08:32:23;99003.25;;;11.23;73.22
78857;BME280;68207;50.078;19.936;2023-03-21T08:34:54;99001.16;;;11.27;73.30
78857;BME280;68207;50.078;19.936;2023-03-21T08:37:20;99008.30;;;11.31;73.25
78857;BME280;68207;50.078;19.936;2023-03-21T08:39:45;99009.33;;;11.33;73.41
78857;BME280;68207;50.078;19.936;2023-03-21T08:42:10;99012.17;;;11.33;73.51
78857;BME280;68207;50.078;19.936;2023-03-21T08:44:35;99014.44;;;11.33;73.61
78857;BME280;68207;50.078;19.936;2023-03-21T08:47:03;99018.88;;;11.33;73.85
78857;BME280;68207;50.078;19.936;2023-03-21T08:49:28;99021.56;;;11.37;73.79
78857;BME280;68207;50.078;19.936;2023-03-21T08:51:56;99021.19;;;11.42;73.79
78857;BME280;68207;50.078;19.936;2023-03-21T08:54:22;99018.45;;;11.48;73.82
78857;BME280;68207;50.078;19.936;2023-03-21T08:56:47;99019.83;;;11.51;73.80
78857;BME280;68207;50.078;19.936;2023-03-21T08:59:13;99017.45;;;11.55;73.81
78857;BME280;68207;50.078;19.936;2023-03-21T09:01:39;99017.73;;;11.57;73.22
78857;BME280;68207;50.078;19.936;2023-03-21T09:04:05;99021.15;;;11.58;73.22
78857;BME280;68207;50.078;19.936;2023-03-21T09:06:34;99019.02;;;11.59;72.68
78857;BME280;68207;50.078;19.936;2023-03-21T09:08:59;99023.52;;;11.63;72.83
78857;BME280;68207;50.078;19.936;2023-03-21T09:11:25;99021.36;;;11.65;71.63
78857;BME280;68207;50.078;19.936;2023-03-21T09:13:50;99023.58;;;11.55;71.18
78857;BME280;68207;50.078;19.936;2023-03-21T09:16:15;99026.65;;;11.47;71.47
78857;BME280;68207;50.078;19.936;2023-03-21T09:18:41;99022.31;;;11.49;71.77
78857;BME280;68207;50.078;19.936;2023-03-21T09:21:10;99024.16;;;11.58;72.07
78857;BME280;68207;50.078;19.936;2023-03-21T09:23:38;99028.52;;;11.64;71.45
78857;BME280;68207;50.078;19.936;2023-03-21T09:26:05;99029.05;;;11.60;70.95
78857;BME280;68207;50.078;19.936;2023-03-21T09:28:31;99026.42;;;11.60;71.33
78857;BME280;68207;50.078;19.936;2023-03-21T09:30:58;99025.88;;;11.63;71.09
78857;BME280;68207;50.078;19.936;2023-03-21T09:33:24;99028.27;;;11.67;71.48
78857;BME280;68207;50.078;19.936;2023-03-21T09:35:52;99029.30;;;11.74;71.44
78857;BME280;68207;50.078;19.936;2023-03-21T09:38:18;99027.85;;;11.79;71.35
78857;BME280;68207;50.078;19.936;2023-03-21T09:48:34;99023.70;;;11.91;70.32
78857;BME280;68207;50.078;19.936;2023-03-21T09:51:02;99026.73;;;11.91;70.38
78857;BME280;68207;50.078;19.936;2023-03-21T09:53:35;99027.14;;;11.92;70.16
78857;BME280;68207;50.078;19.936;2023-03-21T09:56:03;99028.69;;;11.95;70.36
78857;BME280;68207;50.078;19.936;2023-03-21T09:58:33;99027.98;;;12.00;70.70
78857;BME280;68207;50.078;19.936;2023-03-21T10:01:17;99029.73;;;12.04;70.54
78857;BME280;68207;50.078;19.936;2023-03-21T10:04:04;99026.84;;;12.12;70.01
78857;BME280;68207;50.078;19.936;2023-03-21T10:06:33;99029.47;;;12.11;69.15
78857;BME280;68207;50.078;19.936;2023-03-21T10:09:02;99030.34;;;12.07;69.18
78857;BME280;68207;50.078;19.936;2023-03-21T10:11:39;99026.90;;;12.00;69.20
78857;BME280;68207;50.078;19.936;2023-03-21T10:14:14;99024.29;;;11.96;69.06
78857;BME280;68207;50.078;19.936;2023-03-21T10:16:42;99029.45;;;11.93;69.31
78857;BME280;68207;50.078;19.936;2023-03-21T10:19:14;99027.14;;;11.92;69.41
78857;BME280;68207;50.078;19.936;2023-03-21T10:21:42;99029.95;;;11.95;69.17
78857;BME280;68207;50.078;19.936;2023-03-21T10:24:11;99027.09;;;11.91;69.10
78857;BME280;68207;50.078;19.936;2023-03-21T10:26:38;99026.49;;;11.90;68.96
78857;BME280;68207;50.078;19.936;2023-03-21T10:29:03;99031.41;;;11.90;69.06
78857;BME280;68207;50.078;19.936;2023-03-21T10:31:29;99027.96;;;11.91;68.72
78857;BME280;68207;50.078;19.936;2023-03-21T10:33:59;99031.14;;;11.91;68.50
78857;BME280;68207;50.078;19.936;2023-03-21T10:36:28;99030.48;;;11.91;68.27
78857;BME280;68207;50.078;19.936;2023-03-21T10:39:07;99032.55;;;11.90;68.19
78857;BME280;68207;50.078;19.936;2023-03-21T10:41:40;99031.80;;;11.91;68.58
78857;BME280;68207;50.078;19.936;2023-03-21T10:44:14;99027.91;;;11.91;68.19
78857;BME280;68207;50.078;19.936;2023-03-21T10:46:57;99029.09;;;11.88;68.01
78857;BME280;68207;50.078;19.936;2023-03-21T10:49:23;99031.02;;;11.87;68.05
78857;BME280;68207;50.078;19.936;2023-03-21T10:51:53;99027.84;;;11.92;68.20
78857;BME280;68207;50.078;19.936;2023-03-21T10:54:21;99030.65;;;11.97;67.66
78857;BME280;68207;50.078;19.936;2023-03-21T10:56:56;99029.80;;;11.92;67.17
78857;BME280;68207;50.078;19.936;2023-03-21T10:59:24;99030.91;;;11.90;67.46
78857;BME280;68207;50.078;19.936;2023-03-21T11:01:51;99024.34;;;11.93;67.69
78857;BME280;68207;50.078;19.936;2023-03-21T11:04:29;99026.73;;;11.98;67.39
78857;BME280;68207;50.078;19.936;2023-03-21T11:06:56;99023.39;;;11.97;66.67
78857;BME280;68207;50.078;19.936;2023-03-21T11:09:43;99025.52;;;11.92;67.01
78857;BME280;68207;50.078;19.936;2023-03-21T11:12:16;99029.46;;;11.84;66.61
78857;BME280;68207;50.078;19.936;2023-03-21T11:14:48;99029.40;;;11.80;66.92
78857;BME280;68207;50.078;19.936;2023-03-21T11:20:00;99031.09;;;11.80;66.88
78857;BME280;68207;50.078;19.936;2023-03-21T11:22:37;99029.73;;;11.78;66.93
78857;BME280;68207;50.078;19.936;2023-03-21T11:25:06;99027.48;;;11.81;67.06
78857;BME280;68207;50.078;19.936;2023-03-21T11:27:31;99025.22;;;11.84;66.85
78857;BME280;68207;50.078;19.936;2023-03-21T11:29:58;99024.67;;;11.85;66.35
78857;BME280;68207;50.078;19.936;2023-03-21T11:32:33;99022.73;;;11.84;66.27
78857;BME280;68207;50.078;19.936;2023-03-21T11:35:11;99015.85;;;11.83;66.22
78857;BME280;68207;50.078;19.936;2023-03-21T11:37:41;99018.98;;;11.79;66.68
78857;BME280;68207;50.078;19.936;2023-03-21T11:40:23;99016.50;;;11.79;66.80
78857;BME280;68207;50.078;19.936;2023-03-21T11:42:52;99017.83;;;11.79;66.56
78857;BME280;68207;50.078;19.936;2023-03-21T11:45:38;99018.52;;;11.76;66.76
78857;BME280;68207;50.078;19.936;2023-03-21T11:48:19;99015.65;;;11.69;66.56
78857;BME280;68207;50.078;19.936;2023-03-21T11:50:47;99014.89;;;11.63;66.78
78857;BME280;68207;50.078;19.936;2023-03-21T11:53:24;99012.91;;;11.62;66.80
78857;BME280;68207;50.078;19.936;2023-03-21T11:59:24;99011.77;;;11.62;66.56
78857;BME280;68207;50.078;19.936;2023-03-21T12:02:13;99013.31;;;11.64;67.01
78857;BME280;68207;50.078;19.936;2023-03-21T12:05:04;99013.28;;;11.69;67.24
78857;BME280;68207;50.078;19.936;2023-03-21T12:13:22;99006.73;;;11.74;67.21
78857;BME280;68207;50.078;19.936;2023-03-21T12:16:14;99011.58;;;11.73;67.33
78857;BME280;68207;50.078;19.936;2023-03-21T12:27:16;99001.49;;;11.79;67.17
78857;BME280;68207;50.078;19.936;2023-03-21T12:29:54;98996.81;;;11.86;66.63
78857;BME280;68207;50.078;19.936;2023-03-21T12:32:44;98991.81;;;11.93;66.22
78857;BME280;68207;50.078;19.936;2023-03-21T12:45:51;98982.31;;;11.99;64.73
78857;BME280;68207;50.078;19.936;2023-03-21T12:50:47;98985.34;;;11.92;64.64
78857;BME280;68207;50.078;19.936;2023-03-21T12:56:15;98987.56;;;11.85;65.00
78857;BME280;68207;50.078;19.936;2023-03-21T12:58:57;98990.43;;;11.83;65.29
78857;BME280;68207;50.078;19.936;2023-03-21T13:01:23;98988.69;;;11.78;65.34
78857;BME280;68207;50.078;19.936;2023-03-21T13:04:07;98989.48;;;11.75;65.64
78857;BME280;68207;50.078;19.936;2023-03-21T13:06:36;98985.96;;;11.77;65.44
78857;BME280;68207;50.078;19.936;2023-03-21T13:09:15;98981.04;;;11.78;65.77
78857;BME280;68207;50.078;19.936;2023-03-21T13:11:44;98984.06;;;11.78;65.72
78857;BME280;68207;50.078;19.936;2023-03-21T13:14:14;98981.74;;;11.81;65.83
78857;BME280;68207;50.078;19.936;2023-03-21T13:16:45;98981.09;;;11.85;66.17
78857;BME280;68207;50.078;19.936;2023-03-21T13:19:23;98978.45;;;11.90;66.36
78857;BME280;68207;50.078;19.936;2023-03-21T13:22:21;98973.18;;;11.90;65.96
78857;BME280;68207;50.078;19.936;2023-03-21T13:25:36;98976.80;;;11.87;65.88
78857;BME280;68207;50.078;19.936;2023-03-21T13:27:42;98974.24;;;11.82;66.00
78857;BME280;68207;50.078;19.936;2023-03-21T13:32:42;98975.53;;;11.74;65.90
78857;BME280;68207;50.078;19.936;2023-03-21T13:35:39;98968.84;;;11.71;65.82
78857;BME280;68207;50.078;19.936;2023-03-21T13:38:25;98971.27;;;11.65;65.63
78857;BME280;68207;50.078;19.936;2023-03-21T13:44:05;98971.10;;;11.62;65.99
78857;BME280;68207;50.078;19.936;2023-03-21T13:46:52;98972.96;;;11.64;65.72
78857;BME280;68207;50.078;19.936;2023-03-21T13:49:30;98971.80;;;11.65;65.93
78857;BME280;68207;50.078;19.936;2023-03-21T13:51:58;98970.50;;;11.66;65.74
78857;BME280;68207;50.078;19.936;2023-03-21T13:54:30;98972.92;;;11.66;65.74
78857;BME280;68207;50.078;19.936;2023-03-21T13:57:20;98970.11;;;11.66;65.52
78857;BME280;68207;50.078;19.936;2023-03-21T13:59:46;98968.38;;;11.65;65.66
78857;BME280;68207;50.078;19.936;2023-03-21T14:02:32;98970.43;;;11.65;65.59
78857;BME280;68207;50.078;19.936;2023-03-21T14:05:06;98972.42;;;11.61;65.59
78857;BME280;68207;50.078;19.936;2023-03-21T14:07:45;98974.17;;;11.59;65.68
78857;BME280;68207;50.078;19.936;2023-03-21T14:13:02;98972.75;;;11.54;66.48
78857;BME280;68207;50.078;19.936;2023-03-21T14:15:36;98974.52;;;11.52;67.16
78857;BME280;68207;50.078;19.936;2023-03-21T14:18:02;98970.61;;;11.53;67.26
78857;BME280;68207;50.078;19.936;2023-03-21T14:20:33;98972.38;;;11.54;67.59
78857;BME280;68207;50.078;19.936;2023-03-21T14:23:06;98978.15;;;11.52;67.61
78857;BME280;68207;50.078;19.936;2023-03-21T14:25:35;98978.21;;;11.50;67.88